Richwood, Minnesota
Current Conditions -  °F | °C
As of 3:35 PM on Wednesday 26 Nov 2014 (Local Time) from KDTL Reporting Station
Clear Clear  
Wind Chill: -12°   Ceiling: Unl
Heat Index:   Visibility: 10mi
Dew Point: -2°   Wind: 14mph
Humidity: 72%   Direction: 350°N
Pressure: 30.37"   Gusts: NA
Location:  46.97°N, 95.82°W
Report Text: KDTL 262135Z AUTO 35012KT 10SM CLR M15/M19 A3037 RMK AO2
Loading
Personal Weather Stations






























Interactive Weather Map New forecast layout! Learn more

10-Day Weather Forecast

Advertisements
Track Severe Weather on mobile